createdAt,value
2018-05-02T00:00:38.972Z,0
2018-05-02T00:01:38.948Z,0
2018-05-02T00:02:39.469Z,0
2018-05-02T00:03:39.452Z,0
2018-05-02T00:04:38.901Z,0
2018-05-02T00:05:39.151Z,0
2018-05-02T00:06:39.378Z,0
2018-05-02T00:07:39.089Z,0
2018-05-02T00:08:39.342Z,0
2018-05-02T00:09:39.321Z,0
2018-05-02T00:10:39.046Z,0
2018-05-02T00:11:39.041Z,0
2018-05-02T00:12:38.745Z,0
2018-05-02T00:13:38.725Z,0
2018-05-02T00:14:38.709Z,0
2018-05-02T00:15:39.210Z,0
2018-05-02T00:16:38.660Z,0
2018-05-02T00:17:38.914Z,0
2018-05-02T00:18:38.896Z,0
2018-05-02T00:19:39.136Z,0
2018-05-02T00:20:38.323Z,0
2018-05-02T00:21:38.847Z,0
2018-05-02T00:22:39.082Z,0
2018-05-02T00:23:38.787Z,0
2018-05-02T00:24:39.089Z,0
2018-05-02T00:25:38.488Z,0
2018-05-02T00:26:38.473Z,0
2018-05-02T00:27:38.718Z,0
2018-05-02T00:28:38.471Z,0
2018-05-02T00:29:38.685Z,0
2018-05-02T00:30:38.925Z,0
2018-05-02T00:31:38.645Z,0
2018-05-02T00:32:38.359Z,0
2018-05-02T00:33:38.879Z,0
2018-05-02T00:34:38.580Z,0
2018-05-02T00:35:38.827Z,0
2018-05-02T00:36:38.558Z,0
2018-05-02T00:37:38.788Z,0
2018-05-02T00:38:38.511Z,0
2018-05-02T00:39:38.493Z,0
2018-05-02T00:40:38.481Z,0
2018-05-02T00:41:37.918Z,0
2018-05-02T00:42:37.898Z,0
2018-05-02T00:43:38.670Z,0
2018-05-02T00:44:38.124Z,0
2018-05-02T00:45:38.370Z,0
2018-05-02T00:46:38.104Z,0
2018-05-02T00:47:38.600Z,0
2018-05-02T00:48:38.057Z,0
2018-05-02T00:49:38.035Z,0
2018-05-02T00:50:38.277Z,0
2018-05-02T00:51:37.996Z,0
2018-05-02T00:52:38.504Z,0
2018-05-02T00:53:37.956Z,0
2018-05-02T00:54:38.465Z,0
2018-05-02T00:55:37.914Z,0
2018-05-02T00:56:38.424Z,0
2018-05-02T00:57:38.151Z,0
2018-05-02T00:58:37.593Z,0
2018-05-02T00:59:38.373Z,0
2018-05-02T01:00:37.819Z,0
2018-05-02T01:01:38.077Z,0
2018-05-02T01:02:37.784Z,0
2018-05-02T01:03:38.033Z,0
2018-05-02T01:04:37.745Z,0
2018-05-02T01:05:38.007Z,0
2018-05-02T01:06:37.972Z,0
2018-05-02T01:07:38.227Z,0
2018-05-02T01:08:37.670Z,0
2018-05-02T01:09:37.648Z,0
2018-05-02T01:10:38.162Z,0
2018-05-02T01:11:37.874Z,0
2018-05-02T01:12:38.132Z,0
2018-05-02T01:13:37.573Z,0
2018-05-02T01:14:38.084Z,0
2018-05-02T01:15:37.805Z,0
2018-05-02T01:16:37.511Z,0
2018-05-02T01:17:37.767Z,0
2018-05-02T01:18:37.738Z,0
2018-05-02T01:19:38.039Z,0
2018-05-02T01:20:38.036Z,0
2018-05-02T01:21:37.683Z,0
2018-05-02T01:22:37.132Z,0
2018-05-02T01:23:37.379Z,0
2018-05-02T01:24:37.630Z,0
2018-05-02T01:25:37.869Z,0
2018-05-02T01:26:37.324Z,0
2018-05-02T01:27:37.569Z,0
2018-05-02T01:28:37.817Z,0
2018-05-02T01:29:37.544Z,0
2018-05-02T01:30:37.247Z,0
2018-05-02T01:31:37.758Z,0
2018-05-02T01:32:37.750Z,0
2018-05-02T01:33:37.467Z,0
2018-05-02T01:34:37.171Z,0
2018-05-02T01:35:37.428Z,0
2018-05-02T01:36:37.132Z,0
2018-05-02T01:37:36.920Z,0
2018-05-02T01:38:37.092Z,0
2018-05-02T01:39:37.074Z,0
2018-05-02T01:40:37.049Z,0
2018-05-02T01:41:37.300Z,0
2018-05-02T01:42:37.284Z,0
2018-05-02T01:43:37.525Z,0
2018-05-02T01:44:36.711Z,0
2018-05-02T01:45:36.966Z,0
2018-05-02T01:46:37.209Z,0
2018-05-02T01:47:36.922Z,0
2018-05-02T01:48:36.634Z,0
2018-05-02T01:49:37.157Z,0
2018-05-02T01:50:37.129Z,0
2018-05-02T01:51:36.873Z,0
2018-05-02T01:52:37.088Z,0
2018-05-02T01:53:37.735Z,0
2018-05-02T01:54:37.312Z,0
2018-05-02T01:55:37.049Z,0
2018-05-02T01:56:37.015Z,0
2018-05-02T01:57:37.008Z,0
2018-05-02T01:58:36.701Z,0
2018-05-02T01:59:36.952Z,0
2018-05-02T02:00:36.673Z,0
2018-05-02T02:01:36.916Z,0
2018-05-02T02:02:37.158Z,0
2018-05-02T02:03:36.887Z,0
2018-05-02T02:04:36.598Z,0
2018-05-02T02:05:36.574Z,0
2018-05-02T02:06:36.816Z,0
2018-05-02T02:07:36.532Z,0
2018-05-02T02:08:36.538Z,0
2018-05-02T02:09:37.030Z,0
2018-05-02T02:10:36.678Z,0
2018-05-02T02:11:36.457Z,0
2018-05-02T02:12:36.441Z,0
2018-05-02T02:13:36.679Z,0
2018-05-02T02:14:36.399Z,0
2018-05-02T02:15:36.379Z,0
2018-05-02T02:16:36.376Z,0
2018-05-02T02:17:36.616Z,0
2018-05-02T02:18:36.325Z,0
2018-05-02T02:19:36.570Z,0
2018-05-02T02:20:36.281Z,0
2018-05-02T02:21:36.525Z,0
2018-05-02T02:22:36.238Z,0
2018-05-02T02:23:36.222Z,0
2018-05-02T02:24:36.201Z,0
2018-05-02T02:25:36.183Z,0
2018-05-02T02:26:36.429Z,0
2018-05-02T02:27:36.415Z,0
2018-05-02T02:28:36.131Z,0
2018-05-02T02:29:35.838Z,0
2018-05-02T02:30:36.400Z,0
2018-05-02T02:31:36.071Z,0
2018-05-02T02:32:36.604Z,0
2018-05-02T02:33:35.767Z,0
2018-05-02T02:34:36.009Z,0
2018-05-02T02:35:36.256Z,0
2018-05-02T02:36:36.251Z,0
2018-05-02T02:37:36.494Z,0
2018-05-02T02:38:35.938Z,0
2018-05-02T02:39:36.451Z,0
2018-05-02T02:40:36.164Z,0
2018-05-02T02:41:36.400Z,0
2018-05-02T02:42:35.849Z,0
2018-05-02T02:43:35.841Z,0
2018-05-02T02:44:36.350Z,0
2018-05-02T02:45:36.063Z,0
2018-05-02T02:46:35.777Z,0
2018-05-02T02:47:36.018Z,0
2018-05-02T02:48:35.732Z,0
2018-05-02T02:49:35.729Z,0
2018-05-02T02:50:36.240Z,0
2018-05-02T02:51:35.677Z,0
2018-05-02T02:52:35.655Z,0
2018-05-02T02:53:35.631Z,0
2018-05-02T02:54:35.888Z,0
2018-05-02T02:55:36.130Z,0
2018-05-02T02:56:35.582Z,0
2018-05-02T02:57:35.633Z,0
2018-05-02T02:58:35.542Z,0
2018-05-02T02:59:35.787Z,0
2018-05-02T03:00:36.030Z,0
2018-05-02T03:01:35.748Z,0
2018-05-02T03:02:35.198Z,0
2018-05-02T03:03:35.703Z,0
2018-05-02T03:04:35.684Z,0
2018-05-02T03:05:35.997Z,0
2018-05-02T03:06:35.383Z,0
2018-05-02T03:07:35.361Z,0
2018-05-02T03:08:35.343Z,0
2018-05-02T03:09:35.323Z,0
2018-05-02T03:10:35.302Z,0
2018-05-02T03:11:35.546Z,0
2018-05-02T03:12:35.535Z,0
2018-05-02T03:13:35.535Z,0
2018-05-02T03:14:35.491Z,0
2018-05-02T03:15:35.739Z,0
2018-05-02T03:16:35.449Z,0
2018-05-02T03:17:35.438Z,0
2018-05-02T03:18:35.410Z,0
2018-05-02T03:19:35.718Z,0
2018-05-02T03:20:35.106Z,0
2018-05-02T03:21:35.352Z,0
2018-05-02T03:22:34.803Z,0
2018-05-02T03:23:34.787Z,0
2018-05-02T03:24:35.294Z,0
2018-05-02T03:25:35.267Z,0
2018-05-02T03:26:34.981Z,0
2018-05-02T03:27:34.967Z,0
2018-05-02T03:28:35.214Z,4
2018-05-02T03:29:35.198Z,4
2018-05-02T03:30:35.187Z,4
2018-05-02T03:31:34.905Z,0
2018-05-02T03:32:34.866Z,4
2018-05-02T03:33:35.116Z,4
2018-05-02T03:34:34.830Z,4
2018-05-02T03:35:34.542Z,4
2018-05-02T03:36:35.048Z,8
2018-05-02T03:37:35.106Z,4
2018-05-02T03:38:34.748Z,8
2018-05-02T03:39:34.758Z,8
2018-05-02T03:40:34.978Z,12
2018-05-02T03:41:34.696Z,12
2018-05-02T03:42:34.401Z,16
2018-05-02T03:43:34.920Z,20
2018-05-02T03:44:34.364Z,20
2018-05-02T03:45:35.150Z,20
2018-05-02T03:46:35.212Z,24
2018-05-02T03:47:35.180Z,28
2018-05-02T03:48:34.806Z,36
2018-05-02T03:49:34.793Z,36
2018-05-02T03:50:34.773Z,44
2018-05-02T03:51:34.489Z,48
2018-05-02T03:52:34.735Z,56
2018-05-02T03:53:34.190Z,60
2018-05-02T03:54:35.197Z,68
2018-05-02T03:55:34.413Z,72
2018-05-02T03:56:34.391Z,84
2018-05-02T03:57:34.923Z,92
2018-05-02T03:58:34.615Z,104
2018-05-02T03:59:34.639Z,108
2018-05-02T04:00:34.841Z,124
2018-05-02T04:01:34.301Z,132
2018-05-02T04:02:34.799Z,144
2018-05-02T04:03:34.250Z,156
2018-05-02T04:04:33.964Z,172
2018-05-02T04:05:34.482Z,180
2018-05-02T04:06:33.922Z,196
2018-05-02T04:07:34.788Z,212
2018-05-02T04:08:34.189Z,228
2018-05-02T04:09:33.869Z,244
2018-05-02T04:10:34.113Z,260
2018-05-02T04:11:34.625Z,276
2018-05-02T04:12:34.338Z,296
2018-05-02T04:13:34.055Z,312
2018-05-02T04:14:34.299Z,332
2018-05-02T04:15:34.010Z,348
2018-05-02T04:16:33.731Z,364
2018-05-02T04:17:34.501Z,384
2018-05-02T04:18:34.215Z,404
2018-05-02T04:19:33.672Z,428
2018-05-02T04:20:33.913Z,444
2018-05-02T04:21:34.152Z,464
2018-05-02T04:22:34.145Z,488
2018-05-02T04:23:34.129Z,508
2018-05-02T04:24:33.832Z,524
2018-05-02T04:25:34.082Z,544
2018-05-02T04:26:34.065Z,568
2018-05-02T04:27:34.041Z,588
2018-05-02T04:28:33.757Z,608
2018-05-02T04:29:34.004Z,628
2018-05-02T04:30:33.714Z,652
2018-05-02T04:31:33.970Z,668
2018-05-02T04:32:33.443Z,688
2018-05-02T04:33:33.654Z,708
2018-05-02T04:34:33.911Z,728
2018-05-02T04:35:33.619Z,748
2018-05-02T04:36:33.860Z,768
2018-05-02T04:37:33.858Z,788
2018-05-02T04:38:33.553Z,808
2018-05-02T04:39:33.801Z,824
2018-05-02T04:40:34.047Z,844
2018-05-02T04:41:33.764Z,860
2018-05-02T04:42:33.751Z,880
2018-05-02T04:43:33.740Z,900
2018-05-02T04:44:33.708Z,916
2018-05-02T04:45:33.419Z,932
2018-05-02T04:46:33.664Z,952
2018-05-02T04:47:33.381Z,968
2018-05-02T04:48:33.671Z,984
2018-05-02T04:49:33.358Z,1000
2018-05-02T04:50:33.595Z,1016
2018-05-02T04:51:33.569Z,1032
2018-05-02T04:52:33.814Z,1052
2018-05-02T04:53:33.000Z,1064
2018-05-02T04:54:33.581Z,1080
2018-05-02T04:55:33.334Z,1100
2018-05-02T04:56:33.475Z,1116
2018-05-02T04:57:33.185Z,1132
2018-05-02T04:58:33.442Z,1144
2018-05-02T04:59:33.293Z,1164
2018-05-02T05:00:33.136Z,1176
2018-05-02T05:01:32.838Z,1192
2018-05-02T05:02:33.363Z,1208
2018-05-02T05:03:32.798Z,1220
2018-05-02T05:04:33.577Z,1228
2018-05-02T05:05:33.027Z,1244
2018-05-02T05:06:33.063Z,1256
2018-05-02T05:07:32.990Z,1272
2018-05-02T05:08:32.965Z,1280
2018-05-02T05:09:32.685Z,1296
2018-05-02T05:10:33.194Z,1312
2018-05-02T05:11:32.905Z,1324
2018-05-02T05:12:32.897Z,1340
2018-05-02T05:13:33.144Z,1352
2018-05-02T05:14:33.168Z,1364
2018-05-02T05:15:33.128Z,1380
2018-05-02T05:16:32.553Z,1388
2018-05-02T05:17:33.331Z,1404
2018-05-02T05:18:33.045Z,1416
2018-05-02T05:19:32.756Z,1428
2018-05-02T05:20:32.999Z,1440
2018-05-02T05:21:32.986Z,1456
2018-05-02T05:22:32.704Z,1468
2018-05-02T05:23:33.214Z,1480
2018-05-02T05:24:32.663Z,1488
2018-05-02T05:25:32.645Z,1500
2018-05-02T05:26:33.151Z,1516
2018-05-02T05:27:32.883Z,1532
2018-05-02T05:28:33.108Z,1548
2018-05-02T05:29:32.829Z,1560
2018-05-02T05:30:32.545Z,1576
2018-05-02T05:31:32.545Z,1592
2018-05-02T05:32:32.773Z,1604
2018-05-02T05:33:33.020Z,1620
2018-05-02T05:34:33.004Z,1632
2018-05-02T05:35:32.460Z,1644
2018-05-02T05:36:32.704Z,1656
2018-05-02T05:37:32.687Z,1668
2018-05-02T05:38:32.922Z,1676
2018-05-02T05:39:32.909Z,1684
2018-05-02T05:40:32.889Z,1696
2018-05-02T05:41:32.340Z,1704
2018-05-02T05:42:32.580Z,1712
2018-05-02T05:43:32.743Z,1720
2018-05-02T05:44:32.286Z,1728
2018-05-02T05:45:32.273Z,1736
2018-05-02T05:46:32.242Z,1748
2018-05-02T05:47:32.753Z,1756
2018-05-02T05:48:32.201Z,1764
2018-05-02T05:49:32.186Z,1772
2018-05-02T05:50:32.166Z,1784
2018-05-02T05:51:32.417Z,1792
2018-05-02T05:52:32.131Z,1804
2018-05-02T05:53:32.370Z,1816
2018-05-02T05:54:32.671Z,1828
2018-05-02T05:55:32.340Z,1836
2018-05-02T05:56:32.581Z,1844
2018-05-02T05:57:32.038Z,1856
2018-05-02T05:58:32.022Z,1868
2018-05-02T05:59:32.271Z,1884
2018-05-02T06:00:32.257Z,1900
2018-05-02T06:01:32.230Z,1912
2018-05-02T06:02:31.943Z,1928
2018-05-02T06:03:31.665Z,1940
2018-05-02T06:04:32.177Z,1948
2018-05-02T06:05:31.895Z,1960
2018-05-02T06:06:32.143Z,1964
2018-05-02T06:07:31.592Z,1976
2018-05-02T06:08:32.151Z,1988
2018-05-02T06:09:31.821Z,1996
2018-05-02T06:10:31.539Z,2004
2018-05-02T06:11:31.788Z,2020
2018-05-02T06:12:32.032Z,2024
2018-05-02T06:13:32.274Z,2040
2018-05-02T06:14:31.468Z,2060
2018-05-02T06:15:31.714Z,2072
2018-05-02T06:16:31.694Z,2088
2018-05-02T06:17:31.674Z,2100
2018-05-02T06:18:31.917Z,2112
2018-05-02T06:19:31.638Z,2128
2018-05-02T06:20:32.151Z,2144
2018-05-02T06:21:31.606Z,2152
2018-05-02T06:22:31.856Z,2164
2018-05-02T06:23:32.098Z,2176
2018-05-02T06:24:31.287Z,2192
2018-05-02T06:25:31.267Z,2200
2018-05-02T06:26:31.782Z,2208
2018-05-02T06:27:31.766Z,2224
2018-05-02T06:28:31.493Z,2236
2018-05-02T06:29:31.747Z,2248
2018-05-02T06:30:31.442Z,2260
2018-05-02T06:31:31.702Z,2276
2018-05-02T06:32:31.939Z,2292
2018-05-02T06:33:31.746Z,2300
2018-05-02T06:34:31.985Z,2316
2018-05-02T06:35:31.355Z,2328
2018-05-02T06:36:31.341Z,2340
2018-05-02T06:37:31.899Z,2348
2018-05-02T06:38:31.307Z,2352
2018-05-02T06:39:31.288Z,2364
2018-05-02T06:40:31.273Z,2384
2018-05-02T06:41:31.528Z,2396
2018-05-02T06:42:31.765Z,2408
2018-05-02T06:43:31.731Z,2432
2018-05-02T06:44:31.474Z,2444
2018-05-02T06:45:31.454Z,2452
2018-05-02T06:46:31.718Z,2456
2018-05-02T06:47:31.686Z,2472
2018-05-02T06:48:31.405Z,2484
2018-05-02T06:49:31.380Z,2488
2018-05-02T06:50:31.465Z,2492
2018-05-02T06:51:31.083Z,2504
2018-05-02T06:52:31.337Z,2520
2018-05-02T06:53:30.785Z,2528
2018-05-02T06:54:31.233Z,2552
2018-05-02T06:55:31.282Z,2564
2018-05-02T06:56:31.270Z,2580
2018-05-02T06:57:31.254Z,2588
2018-05-02T06:58:31.236Z,2596
2018-05-02T06:59:30.951Z,2608
2018-05-02T07:00:31.203Z,2616
2018-05-02T07:01:31.192Z,2632
2018-05-02T07:02:31.437Z,2628
2018-05-02T07:03:31.420Z,2620
2018-05-02T07:04:31.135Z,2620
2018-05-02T07:05:30.853Z,2636
2018-05-02T07:06:31.099Z,2648
2018-05-02T07:07:31.090Z,2656
2018-05-02T07:08:30.806Z,2668
2018-05-02T07:09:30.791Z,2688
2018-05-02T07:10:31.041Z,2716
2018-05-02T07:11:31.281Z,2748
2018-05-02T07:12:31.005Z,2776
2018-05-02T07:13:31.177Z,2804
2018-05-02T07:14:30.970Z,2844
2018-05-02T07:15:30.689Z,2880
2018-05-02T07:16:30.938Z,2900
2018-05-02T07:17:30.922Z,2928
2018-05-02T07:18:30.643Z,2968
2018-05-02T07:19:30.354Z,3036
2018-05-02T07:20:30.612Z,3128
2018-05-02T07:21:30.859Z,3156
2018-05-02T07:22:30.837Z,3100
2018-05-02T07:23:30.830Z,3096
2018-05-02T07:24:30.538Z,3124
2018-05-02T07:25:31.053Z,3156
2018-05-02T07:26:30.774Z,3192
2018-05-02T07:27:30.497Z,3220
2018-05-02T07:28:30.483Z,3284
2018-05-02T07:29:31.001Z,3364
2018-05-02T07:30:30.446Z,3448
2018-05-02T07:31:30.696Z,3508
2018-05-02T07:32:31.310Z,3592
2018-05-02T07:33:30.739Z,3664
2018-05-02T07:34:30.378Z,3692
2018-05-02T07:35:30.373Z,3728
2018-05-02T07:36:30.887Z,3780
2018-05-02T07:37:30.346Z,3836
2018-05-02T07:38:30.587Z,3892
2018-05-02T07:39:30.573Z,3952
2018-05-02T07:40:30.549Z,3992
2018-05-02T07:41:30.807Z,4032
2018-05-02T07:42:30.262Z,4080
2018-05-02T07:43:30.506Z,4116
2018-05-02T07:44:30.504Z,4176
2018-05-02T07:45:30.483Z,4224
2018-05-02T07:46:30.463Z,4244
2018-05-02T07:47:29.922Z,4264
2018-05-02T07:48:30.450Z,4300
2018-05-02T07:49:30.707Z,4344
2018-05-02T07:50:30.406Z,4352
2018-05-02T07:51:30.663Z,4376
2018-05-02T07:52:30.643Z,4452
2018-05-02T07:53:30.632Z,4488
2018-05-02T07:54:30.827Z,4480
2018-05-02T07:55:30.437Z,4524
2018-05-02T07:56:30.195Z,4540
2018-05-02T07:57:30.048Z,4584
2018-05-02T07:58:30.024Z,4632
2018-05-02T07:59:30.283Z,4656
2018-05-02T08:00:29.726Z,4648
2018-05-02T08:01:29.980Z,4628
2018-05-02T08:02:29.972Z,4676
2018-05-02T08:03:29.949Z,4736
2018-05-02T08:04:30.215Z,4760
2018-05-02T08:05:29.920Z,4760
2018-05-02T08:06:30.176Z,4824
2018-05-02T08:07:29.632Z,4948
2018-05-02T08:08:30.159Z,5644
2018-05-02T08:09:30.133Z,22560
2018-05-02T08:10:29.857Z,38528
2018-05-02T08:11:29.576Z,38880
2018-05-02T08:12:29.827Z,36672
2018-05-02T08:13:29.813Z,34496
2018-05-02T08:14:30.067Z,34080
2018-05-02T08:15:29.521Z,33248
2018-05-02T08:16:30.254Z,35232
2018-05-02T08:17:30.301Z,36160
2018-05-02T08:18:29.759Z,37664
2018-05-02T08:19:29.748Z,38368
2018-05-02T08:20:30.005Z,4128
2018-05-02T08:21:30.002Z,3776
2018-05-02T08:22:30.251Z,40416
2018-05-02T08:23:29.718Z,3516
2018-05-02T08:24:30.240Z,3380
2018-05-02T08:25:29.691Z,6092
2018-05-02T08:26:30.214Z,4320
2018-05-02T08:27:29.937Z,4216
2018-05-02T08:28:29.933Z,5612
2018-05-02T08:29:30.183Z,6412
2018-05-02T08:30:29.645Z,4368
2018-05-02T08:31:29.901Z,3636
2018-05-02T08:32:29.896Z,4276
2018-05-02T08:33:29.945Z,15472
2018-05-02T08:34:29.867Z,7384
2018-05-02T08:35:29.592Z,7116
2018-05-02T08:36:30.108Z,15192
2018-05-02T08:37:30.100Z,30688
2018-05-02T08:38:29.819Z,32992
2018-05-02T08:39:30.071Z,20096
2018-05-02T08:40:29.533Z,13248
2018-05-02T08:41:29.525Z,9832
2018-05-02T08:42:29.772Z,9476
2018-05-02T08:43:29.499Z,9016
2018-05-02T08:44:29.753Z,8580
2018-05-02T08:45:29.742Z,9316
2018-05-02T08:46:29.729Z,9540
2018-05-02T08:47:29.992Z,7772
2018-05-02T08:48:29.706Z,7416
2018-05-02T08:49:29.695Z,8924
2018-05-02T08:50:29.691Z,7532
2018-05-02T08:51:29.409Z,8040
2018-05-02T08:52:29.931Z,12584
2018-05-02T08:53:29.659Z,12652
2018-05-02T08:54:29.643Z,9936
2018-05-02T08:55:29.899Z,7868
2018-05-02T08:56:29.617Z,6416
2018-05-02T08:57:30.121Z,6308
2018-05-02T08:58:29.066Z,7428
2018-05-02T08:59:29.046Z,8688
2018-05-02T09:00:29.837Z,7044
2018-05-02T09:01:29.288Z,6692
2018-05-02T09:02:29.813Z,8120
2018-05-02T09:03:29.804Z,8304
2018-05-02T09:04:29.250Z,8048
2018-05-02T09:05:29.781Z,11368
2018-05-02T09:06:29.780Z,9804
2018-05-02T09:07:29.482Z,9040
2018-05-02T09:08:29.474Z,10492
2018-05-02T09:09:29.464Z,11672
2018-05-02T09:10:29.628Z,9868
2018-05-02T09:11:29.440Z,12572
2018-05-02T09:12:29.418Z,11172
2018-05-02T09:13:29.151Z,8744
2018-05-02T09:14:29.138Z,8436
2018-05-02T09:15:29.213Z,10484
2018-05-02T09:16:29.111Z,12344
2018-05-02T09:17:29.436Z,13028
2018-05-02T09:18:29.427Z,11940
2018-05-02T09:19:29.606Z,11244
2018-05-02T09:20:29.064Z,12908
2018-05-02T09:21:29.314Z,12144
2018-05-02T09:22:29.036Z,10412
2018-05-02T09:23:29.039Z,10604
2018-05-02T09:24:29.021Z,10628
2018-05-02T09:25:29.011Z,10352
2018-05-02T09:26:28.999Z,10528
2018-05-02T09:27:29.247Z,9256
2018-05-02T09:28:29.245Z,12884
2018-05-02T09:29:28.960Z,9976
2018-05-02T09:30:29.475Z,8716
2018-05-02T09:31:29.203Z,10116
2018-05-02T09:32:29.468Z,8936
2018-05-02T09:33:29.174Z,8776
2018-05-02T09:34:28.901Z,8640
2018-05-02T09:35:28.924Z,8540
2018-05-02T09:36:28.888Z,8256
2018-05-02T09:37:29.130Z,8708
2018-05-02T09:38:28.856Z,9848
2018-05-02T09:39:29.108Z,10520
2018-05-02T09:40:29.095Z,10840
2018-05-02T09:41:29.354Z,11352
2018-05-02T09:42:29.071Z,11352
2018-05-02T09:43:28.799Z,10552
2018-05-02T09:44:29.049Z,11056
2018-05-02T09:45:28.770Z,12404
2018-05-02T09:46:28.495Z,12940
2018-05-02T09:47:29.016Z,12980
2018-05-02T09:48:29.002Z,15036
2018-05-02T09:49:28.463Z,14476
2018-05-02T09:50:28.715Z,14176
2018-05-02T09:51:29.229Z,14416
2018-05-02T09:52:28.954Z,12712
2018-05-02T09:53:28.951Z,12452
2018-05-02T09:54:28.873Z,10900
2018-05-02T09:55:29.189Z,12324
2018-05-02T09:56:28.386Z,10808
2018-05-02T09:57:28.901Z,10676
2018-05-02T09:58:28.890Z,11200
2018-05-02T09:59:28.624Z,10916
2018-05-02T10:00:28.870Z,9772
2018-05-02T10:01:28.326Z,10456
2018-05-02T10:02:29.118Z,8908
2018-05-02T10:03:28.581Z,8300
2018-05-02T10:04:28.615Z,10860
2018-05-02T10:05:29.080Z,9604
2018-05-02T10:06:28.805Z,7836
2018-05-02T10:07:28.531Z,7680
2018-05-02T10:08:28.244Z,7484
2018-05-02T10:09:28.776Z,8048
2018-05-02T10:10:28.760Z,7728
2018-05-02T10:11:28.746Z,9608
2018-05-02T10:12:28.848Z,8048
2018-05-02T10:13:28.458Z,7964
2018-05-02T10:14:28.456Z,8436
2018-05-02T10:15:28.437Z,8340
2018-05-02T10:16:28.170Z,7732
2018-05-02T10:17:28.155Z,35840
2018-05-02T10:18:28.842Z,24480
2018-05-02T10:19:28.395Z,24768
2018-05-02T10:20:28.664Z,15988
2018-05-02T10:21:28.910Z,20928
2018-05-02T10:22:28.098Z,67424
2018-05-02T10:23:28.620Z,46656
2018-05-02T10:24:28.356Z,33568
2018-05-02T10:25:28.599Z,61760
2018-05-02T10:26:28.055Z,50944
2018-05-02T10:27:28.584Z,54656
2018-05-02T10:28:28.837Z,69472
2018-05-02T10:29:28.831Z,64160
2018-05-02T10:30:28.028Z,65184
2018-05-02T10:31:28.287Z,70496
2018-05-02T10:32:28.807Z,74368
2018-05-02T10:33:28.002Z,79136
2018-05-02T10:34:28.263Z,84256
2018-05-02T10:35:28.519Z,88992
2018-05-02T10:36:28.252Z,92640
2018-05-02T10:37:28.515Z,96288
2018-05-02T10:38:28.247Z,97184
2018-05-02T10:39:28.507Z,95840
2018-05-02T10:40:28.509Z,92288
2018-05-02T10:41:28.767Z,89152
2018-05-02T10:42:28.504Z,84768
2018-05-02T10:43:28.760Z,82880
2018-05-02T10:44:28.228Z,84000
2018-05-02T10:45:28.481Z,85600
2018-05-02T10:46:28.484Z,88480
2018-05-02T10:47:28.500Z,92800
2018-05-02T10:48:28.490Z,96928
2018-05-02T10:49:28.483Z,101024
2018-05-02T10:50:28.943Z,104384
2018-05-02T10:51:28.471Z,101696
2018-05-02T10:52:28.747Z,99840
2018-05-02T10:53:28.480Z,94496
2018-05-02T10:54:28.206Z,89248
2018-05-02T10:55:28.221Z,85600
2018-05-02T10:56:28.750Z,85600
2018-05-02T10:57:28.471Z,81568
2018-05-02T10:58:28.476Z,88352
2018-05-02T10:59:28.464Z,92576
2018-05-02T11:00:28.741Z,92832
2018-05-02T11:01:28.473Z,91840
2018-05-02T11:02:28.212Z,88864
2018-05-02T11:03:28.472Z,85856
2018-05-02T11:04:28.468Z,84992
2018-05-02T11:05:28.473Z,88480
2018-05-02T11:06:28.203Z,90272
2018-05-02T11:07:28.743Z,92544
2018-05-02T11:08:28.680Z,92096
2018-05-02T11:09:27.945Z,92064
2018-05-02T11:10:28.473Z,91424
2018-05-02T11:11:28.212Z,89536
2018-05-02T11:12:28.489Z,88448
2018-05-02T11:13:27.949Z,85152
2018-05-02T11:14:28.478Z,83296
2018-05-02T11:15:28.755Z,81024
2018-05-02T11:16:28.751Z,80864
2018-05-02T11:17:28.749Z,82272
2018-05-02T11:18:28.485Z,82720
2018-05-02T11:19:28.496Z,83648
2018-05-02T11:20:28.767Z,86208
2018-05-02T11:21:28.229Z,85792
2018-05-02T11:22:28.225Z,83424
2018-05-02T11:23:28.500Z,81632
2018-05-02T11:24:28.495Z,79968
2018-05-02T11:25:28.500Z,80320
2018-05-02T11:26:28.248Z,81920
2018-05-02T11:27:28.240Z,83552
2018-05-02T11:28:28.810Z,84448
2018-05-02T11:29:27.975Z,86688
2018-05-02T11:30:28.508Z,88672
2018-05-02T11:31:28.246Z,88672
2018-05-02T11:32:28.530Z,92416
2018-05-02T11:33:27.996Z,89952
2018-05-02T11:34:28.524Z,92448
2018-05-02T11:35:28.253Z,82400
2018-05-02T11:36:28.547Z,85984
2018-05-02T11:37:28.265Z,77024
2018-05-02T11:38:28.263Z,74624
2018-05-02T11:39:28.269Z,84800
2018-05-02T11:40:28.272Z,81696
2018-05-02T11:41:28.286Z,88352
2018-05-02T11:42:28.547Z,93920
2018-05-02T11:43:28.555Z,96128
2018-05-02T11:44:28.283Z,98880
2018-05-02T11:45:28.285Z,97792
2018-05-02T11:46:28.724Z,91744
2018-05-02T11:47:28.830Z,85536
2018-05-02T11:48:28.559Z,85344
2018-05-02T11:49:28.572Z,83968
2018-05-02T11:50:28.041Z,80448
2018-05-02T11:51:28.573Z,70496
2018-05-02T11:52:28.577Z,64320
2018-05-02T11:53:28.952Z,72384
2018-05-02T11:54:28.789Z,84736
2018-05-02T11:55:28.320Z,81472
2018-05-02T11:56:28.330Z,87840
2018-05-02T11:57:28.609Z,85344
2018-05-02T11:58:28.337Z,77312
2018-05-02T11:59:28.598Z,58912
2018-05-02T12:00:28.606Z,46528
2018-05-02T12:01:28.877Z,54272
2018-05-02T12:02:28.347Z,66208
2018-05-02T12:03:28.438Z,79904
2018-05-02T12:04:28.615Z,79872
2018-05-02T12:05:28.613Z,72032
2018-05-02T12:06:28.354Z,62784
2018-05-02T12:07:28.094Z,68384
2018-05-02T12:08:28.624Z,51136
2018-05-02T12:09:28.098Z,64160
2018-05-02T12:10:29.093Z,70656
2018-05-02T12:11:28.688Z,78080
2018-05-02T12:12:28.372Z,73120
2018-05-02T12:13:28.377Z,73792
2018-05-02T12:14:28.380Z,66848
2018-05-02T12:15:28.114Z,64800
2018-05-02T12:16:28.379Z,58976
2018-05-02T12:17:28.386Z,64608
2018-05-02T12:18:28.644Z,58208
2018-05-02T12:19:28.646Z,56672
2018-05-02T12:20:28.651Z,51200
2018-05-02T12:21:28.660Z,51904
2018-05-02T12:22:28.651Z,50400
2018-05-02T12:23:28.648Z,53120
2018-05-02T12:24:28.916Z,68992
2018-05-02T12:25:28.921Z,50656
2018-05-02T12:26:28.931Z,52416
2018-05-02T12:27:28.659Z,68256
2018-05-02T12:28:28.657Z,53984
2018-05-02T12:29:28.657Z,52320
2018-05-02T12:30:28.393Z,54688
2018-05-02T12:31:28.656Z,51680
2018-05-02T12:32:28.650Z,49728
2018-05-02T12:33:28.391Z,56576
2018-05-02T12:34:28.927Z,49696
2018-05-02T12:35:28.439Z,54176
2018-05-02T12:36:28.387Z,69536
2018-05-02T12:37:28.919Z,54336
2018-05-02T12:38:28.389Z,38240
2018-05-02T12:39:28.395Z,35200
2018-05-02T12:40:28.385Z,42912
2018-05-02T12:41:28.918Z,48256
2018-05-02T12:42:28.387Z,52640
2018-05-02T12:43:28.654Z,57536
2018-05-02T12:44:28.913Z,57408
2018-05-02T12:45:28.648Z,46112
2018-05-02T12:46:28.128Z,47456
2018-05-02T12:47:28.113Z,53600
2018-05-02T12:48:28.649Z,48576
2018-05-02T12:49:28.912Z,47648
2018-05-02T12:50:28.382Z,42240
2018-05-02T12:51:28.109Z,45248
2018-05-02T12:52:28.371Z,40000
2018-05-02T12:53:28.377Z,51840
2018-05-02T12:54:28.376Z,52352
2018-05-02T12:55:28.637Z,65664
2018-05-02T12:56:28.101Z,58720
2018-05-02T12:57:28.366Z,52416
2018-05-02T12:58:28.380Z,66592
2018-05-02T12:59:28.374Z,71488
2018-05-02T13:00:28.624Z,71840
2018-05-02T13:01:28.906Z,84800
2018-05-02T13:02:28.416Z,63872
2018-05-02T13:03:28.363Z,54880
2018-05-02T13:04:28.361Z,62432
2018-05-02T13:05:28.618Z,70176
2018-05-02T13:06:28.891Z,64352
2018-05-02T13:07:28.885Z,64064
2018-05-02T13:08:28.353Z,69184
2018-05-02T13:09:28.353Z,65792
2018-05-02T13:10:28.354Z,56992
2018-05-02T13:11:28.617Z,68256
2018-05-02T13:12:28.349Z,59456
2018-05-02T13:13:28.086Z,48384
2018-05-02T13:14:28.352Z,49280
2018-05-02T13:15:28.882Z,43264
2018-05-02T13:16:28.890Z,58240
2018-05-02T13:17:28.618Z,59680
2018-05-02T13:18:28.088Z,53952
2018-05-02T13:19:28.345Z,56512
2018-05-02T13:20:28.348Z,44608
2018-05-02T13:21:28.880Z,65248
2018-05-02T13:22:28.606Z,52352
2018-05-02T13:23:29.051Z,46912
2018-05-02T13:24:28.086Z,37120
2018-05-02T13:25:28.338Z,45792
2018-05-02T13:26:28.606Z,51872
2018-05-02T13:27:28.348Z,55584
2018-05-02T13:28:28.358Z,44992
2018-05-02T13:29:28.611Z,54048
2018-05-02T13:30:28.609Z,48032
2018-05-02T13:31:28.621Z,45280
2018-05-02T13:32:28.865Z,41984
2018-05-02T13:33:28.338Z,64992
2018-05-02T13:34:28.343Z,52736